Time;durP1;ratioP1;P1;durP2;ratioP2;P2;SDS_P1;SDS_P2;PMS_P1;PMS_P2;Temp;Humidity;BMP_temperature;BMP_pressure;BME280_temperature;BME280_humidity;BME280_pressure;Samples;Min_cycle;Max_cycle;Signal;HPM_P1;HPM_P2
2022/04/05 00:01:18;;;;;;;9.80;5.35;;;;;;;0.69;54.81;99939.20;1712799;81;21514;-52
2022/04/05 00:03:46;;;;;;;9.43;5.83;;;;;;;0.70;54.80;99930.50;1714762;81;21190;-53
2022/04/05 00:06:12;;;;;;;9.63;5.12;;;;;;;0.72;54.72;99926.54;1715691;83;21070;-52
2022/04/05 00:08:39;;;;;;;9.23;5.20;;;;;;;0.70;54.71;99929.66;1709046;81;21109;-53
2022/04/05 00:11:06;;;;;;;8.75;5.30;;;;;;;0.70;54.63;99925.31;1714537;83;21043;-52
2022/04/05 00:13:33;;;;;;;9.10;5.42;;;;;;;0.67;54.70;99924.63;1708898;81;21050;-51
2022/04/05 00:15:59;;;;;;;8.75;5.53;;;;;;;0.67;54.79;99918.15;1708350;81;21140;-51
2022/04/05 00:18:26;;;;;;;8.93;5.37;;;;;;;0.63;54.87;99912.28;1708746;81;21089;-51
2022/04/05 00:20:54;;;;;;;11.03;5.80;;;;;;;0.63;54.68;99917.92;1716676;83;21165;-52
2022/04/05 00:23:21;;;;;;;10.53;4.97;;;;;;;0.63;54.82;99914.04;1713221;82;21502;-51
2022/04/05 00:25:48;;;;;;;11.30;5.72;;;;;;;0.63;54.86;99912.28;1715826;82;21162;-52
2022/04/05 00:28:15;;;;;;;11.05;5.70;;;;;;;0.62;54.76;99906.70;1713531;82;21475;-52
2022/04/05 00:30:41;;;;;;;9.88;5.30;;;;;;;0.62;54.61;99911.05;1712944;83;21086;-52
2022/04/05 00:33:08;;;;;;;14.18;6.12;;;;;;;0.61;54.59;99909.39;1715252;82;21130;-52
2022/04/05 00:35:35;;;;;;;7.75;4.72;;;;;;;0.57;54.62;99900.90;1705893;81;21008;-51
2022/04/05 00:38:02;;;;;;;9.60;4.62;;;;;;;0.57;54.55;99897.48;1715254;82;21082;-51
2022/04/05 00:40:30;;;;;;;9.90;5.22;;;;;;;0.58;54.50;99892.70;1715241;81;21546;-52
2022/04/05 00:42:58;;;;;;;8.80;4.90;;;;;;;0.55;54.35;99890.64;1715555;81;21068;-52
2022/04/05 00:45:26;;;;;;;10.28;5.05;;;;;;;0.58;54.32;99893.99;1714093;81;21467;-53
2022/04/05 00:47:54;;;;;;;10.43;5.45;;;;;;;0.58;54.24;99888.81;1713186;83;21050;-50
2022/04/05 00:50:22;;;;;;;9.68;4.85;;;;;;;0.59;54.10;99888.75;1715754;81;21098;-51
2022/04/05 00:52:49;;;;;;;7.92;4.75;;;;;;;0.59;53.96;99890.47;1714119;82;21132;-52
2022/04/05 00:55:22;;;;;;;10.23;5.60;;;;;;;0.58;53.76;99885.77;1710963;82;21354;-52
2022/04/05 00:57:53;;;;;;;8.78;5.00;;;;;;;0.58;53.76;99885.77;1714109;83;21680;-51
2022/04/05 01:00:21;;;;;;;8.60;4.62;;;;;;;0.59;53.82;99881.41;1706643;82;21102;-51
2022/04/05 01:02:49;;;;;;;9.25;4.87;;;;;;;0.59;53.85;99871.06;1711127;82;21011;-51
2022/04/05 01:05:19;;;;;;;10.15;4.60;;;;;;;0.59;53.85;99871.06;1714479;81;22246;-50
2022/04/05 01:07:47;;;;;;;8.50;4.87;;;;;;;0.58;53.62;99861.63;1716364;83;21083;-51
2022/04/05 01:10:14;;;;;;;12.73;4.40;;;;;;;0.61;53.44;99871.84;1711050;81;21058;-54
2022/04/05 01:12:41;;;;;;;8.30;4.70;;;;;;;0.59;53.43;99867.17;1717233;83;21126;-50
2022/04/05 01:15:09;;;;;;;8.98;5.05;;;;;;;0.60;53.38;99854.63;1714323;81;21564;-51
2022/04/05 01:17:37;;;;;;;9.65;4.37;;;;;;;0.59;53.23;99854.23;1719590;81;21046;-50
2022/04/05 01:20:07;;;;;;;7.03;4.30;;;;;;;0.62;53.17;99856.67;1659738;83;21061;-52
2022/04/05 01:22:33;;;;;;;8.93;5.08;;;;;;;0.59;53.07;99852.94;1692549;83;21626;-50
2022/04/05 01:25:00;;;;;;;9.85;4.03;;;;;;;0.63;53.15;99849.30;1694006;83;21060;-51
2022/04/05 01:27:28;;;;;;;8.03;5.08;;;;;;;0.62;53.04;99845.03;1693831;84;21048;-51
2022/04/05 01:29:55;;;;;;;9.70;5.20;;;;;;;0.62;53.14;99839.38;1690543;83;21149;-51
2022/04/05 01:32:22;;;;;;;10.88;5.30;;;;;;;0.61;53.25;99827.83;1695745;84;21068;-51
2022/04/05 01:34:49;;;;;;;8.93;4.78;;;;;;;0.60;53.41;99825.68;1692158;83;21100;-52
2022/04/05 01:37:15;;;;;;;8.85;5.22;;;;;;;0.58;53.61;99821.50;1692824;83;21037;-51
2022/04/05 01:39:42;;;;;;;8.30;4.65;;;;;;;0.57;53.67;99819.34;1708919;81;21086;-52
2022/04/05 01:42:14;;;;;;;8.15;4.85;;;;;;;0.56;53.68;99816.39;1691103;83;21230;-52
2022/04/05 01:44:42;;;;;;;11.20;5.60;;;;;;;0.56;53.80;99813.80;1691148;83;21518;-52
2022/04/05 01:47:13;;;;;;;8.23;4.67;;;;;;;0.53;53.69;99807.01;1693408;83;21091;-51
2022/04/05 01:49:42;;;;;;;10.65;5.83;;;;;;;0.54;53.51;99808.70;1694340;83;21142;-51
2022/04/05 01:52:09;;;;;;;7.85;4.97;;;;;;;0.53;53.59;99812.19;1695270;84;21107;-51
2022/04/05 01:54:37;;;;;;;8.48;4.72;;;;;;;0.52;53.48;99807.08;1691873;83;21145;-51
2022/04/05 01:57:05;;;;;;;8.70;4.60;;;;;;;0.51;53.43;99801.07;1693808;84;21067;-51
2022/04/05 01:59:36;;;;;;;10.58;5.47;;;;;;;0.51;53.43;99801.07;1693837;83;21420;-51
2022/04/05 02:02:06;;;;;;;9.88;5.87;;;;;;;0.47;53.58;99791.79;1695700;83;21063;-51
2022/04/05 02:04:33;;;;;;;10.90;5.90;;;;;;;0.47;53.58;99791.79;1729925;81;21676;-51
2022/04/05 02:07:00;;;;;;;11.18;6.42;;;;;;;0.47;53.15;99786.61;1733714;82;21229;-52
2022/04/05 02:09:27;;;;;;;11.97;6.47;;;;;;;0.46;52.96;99787.52;1764444;79;21043;-51
2022/04/05 02:11:54;;;;;;;11.28;6.10;;;;;;;0.46;52.85;99785.39;1772143;79;21470;-52
2022/04/05 02:14:26;;;;;;;12.13;5.40;;;;;;;0.49;52.74;99786.08;1762665;79;21574;-52
2022/04/05 02:16:53;;;;;;;11.63;6.05;;;;;;;0.49;52.64;99786.08;1737059;80;21052;-52
2022/04/05 02:19:20;;;;;;;10.08;5.75;;;;;;;0.50;52.55;99783.85;1732673;81;21135;-52
2022/04/05 02:21:49;;;;;;;11.45;5.75;;;;;;;0.51;52.47;99773.06;1727384;81;21134;-52
2022/04/05 02:24:17;;;;;;;10.43;5.25;;;;;;;0.54;52.49;99781.52;1763442;79;21075;-53
2022/04/05 02:26:44;;;;;;;9.70;5.37;;;;;;;0.52;52.45;99778.17;1762058;79;21547;-51
2022/04/05 02:29:11;;;;;;;10.72;5.75;;;;;;;0.51;52.34;99781.66;1745819;79;21157;-52
2022/04/05 02:31:40;;;;;;;8.23;5.10;;;;;;;0.52;52.20;99778.17;1753635;81;21084;-53
2022/04/05 02:34:09;;;;;;;12.53;4.87;;;;;;;0.51;52.23;99772.59;1772842;79;21098;-51
2022/04/05 02:36:38;;;;;;;11.55;5.42;;;;;;;0.51;52.12;99770.47;1742326;81;21027;-52
2022/04/05 02:39:07;;;;;;;9.58;5.37;;;;;;;0.53;52.10;99766.88;1770615;79;21059;-51
2022/04/05 02:41:35;;;;;;;8.13;5.05;;;;;;;0.57;52.07;99762.39;1765520;79;21173;-52
2022/04/05 02:44:02;;;;;;;12.53;6.37;;;;;;;0.57;52.08;99758.50;1765524;79;22094;-52
2022/04/05 02:46:31;;;;;;;10.30;5.55;;;;;;;0.59;52.09;99755.84;1762511;79;21094;-51
2022/04/05 02:48:58;;;;;;;13.83;5.42;;;;;;;0.61;51.96;99759.22;1770386;79;21062;-51
2022/04/05 02:51:33;;;;;;;9.45;5.40;;;;;;;0.61;51.84;99750.16;1771543;79;21044;-52
2022/04/05 02:54:01;;;;;;;11.03;5.85;;;;;;;0.61;51.72;99743.69;1763705;79;21114;-52
2022/04/05 02:56:30;;;;;;;8.65;5.20;;;;;;;0.60;51.83;99745.41;1736802;81;21210;-52
2022/04/05 02:58:57;;;;;;;9.90;5.30;;;;;;;0.59;51.85;99735.99;1766039;79;21047;-53
2022/04/05 03:01:24;;;;;;;9.70;5.50;;;;;;;0.64;52.12;99739.63;1758569;80;21528;-52
2022/04/05 03:03:52;;;;;;;7.42;4.58;;;;;;;0.64;52.12;99739.63;1745904;79;21052;-52
2022/04/05 03:06:19;;;;;;;11.38;4.92;;;;;;;0.64;51.93;99735.73;1775779;80;21061;-53
2022/04/05 03:08:47;;;;;;;8.35;4.60;;;;;;;0.66;51.97;99733.47;1738743;81;21135;-51
2022/04/05 03:11:14;;;;;;;8.43;5.00;;;;;;;0.69;52.04;99733.33;1742859;80;21066;-51
2022/04/05 03:13:43;;;;;;;9.55;4.42;;;;;;;0.73;52.01;99732.71;1670624;84;21542;-52
2022/04/05 03:16:11;;;;;;;11.50;5.58;;;;;;;0.74;52.01;99728.75;1725546;81;21110;-53
2022/04/05 03:18:39;;;;;;;9.55;4.35;;;;;;;0.78;52.41;99723.42;1724826;82;21079;-51
2022/04/05 03:21:06;;;;;;;10.85;5.17;;;;;;;0.78;52.41;99723.42;1724669;81;21177;-52
2022/04/05 03:23:35;;;;;;;8.18;4.72;;;;;;;0.79;52.16;99719.47;1726588;81;21012;-52
2022/04/05 03:26:02;;;;;;;11.80;6.35;;;;;;;0.83;52.16;99713.67;1721900;81;22398;-52
2022/04/05 03:28:29;;;;;;;11.83;6.05;;;;;;;0.85;52.13;99708.78;1722622;81;21035;-51
2022/04/05 03:30:56;;;;;;;8.28;4.95;;;;;;;0.88;52.23;99707.33;1715644;81;21122;-51
2022/04/05 03:33:24;;;;;;;10.23;5.62;;;;;;;0.91;52.62;99705.06;1726070;81;21257;-52
2022/04/05 03:35:51;;;;;;;10.55;5.35;;;;;;;0.90;52.49;99705.49;1726227;81;21087;-52
2022/04/05 03:38:18;;;;;;;9.93;5.58;;;;;;;0.93;52.53;99704.05;1724735;81;21098;-51
2022/04/05 03:40:45;;;;;;;11.68;6.47;;;;;;;0.94;52.66;99699.69;1722337;81;21082;-52
2022/04/05 03:43:13;;;;;;;10.23;5.22;;;;;;;0.97;52.83;99700.84;1721158;81;21054;-54
2022/04/05 03:45:42;;;;;;;11.15;5.35;;;;;;;0.97;52.83;99700.84;1723801;81;21103;-51
2022/04/05 03:48:09;;;;;;;14.53;5.92;;;;;;;0.96;52.94;99693.14;1717765;81;21050;-51
2022/04/05 03:50:36;;;;;;;9.08;5.62;;;;;;;0.99;53.08;99694.28;1722518;81;21082;-51
2022/04/05 03:53:03;;;;;;;12.63;6.70;;;;;;;1.01;53.18;99695.03;1723259;82;21019;-52
2022/04/05 03:55:32;;;;;;;11.68;5.78;;;;;;;1.06;53.53;99689.16;1723190;81;21126;-51
2022/04/05 03:58:01;;;;;;;11.57;7.03;;;;;;;1.09;53.28;99684.68;1749936;80;21116;-51
2022/04/05 04:00:29;;;;;;;11.38;7.08;;;;;;;1.18;53.24;99685.09;1745146;80;21050;-52
2022/04/05 04:03:12;;;;;;;11.65;6.72;;;;;;;1.18;53.24;99685.09;1781093;80;21078;-51
2022/04/05 04:05:39;;;;;;;9.65;6.30;;;;;;;1.20;53.17;99681.52;1750770;80;21106;-51
2022/04/05 04:08:07;;;;;;;10.75;6.03;;;;;;;1.21;53.26;99677.16;1754699;80;21147;-52
2022/04/05 04:10:35;;;;;;;11.22;6.45;;;;;;;1.25;53.44;99674.33;1747007;80;21182;-51
2022/04/05 04:13:06;;;;;;;13.05;7.12;;;;;;;1.28;53.53;99668.16;1751292;81;21139;-52
2022/04/05 04:15:34;;;;;;;12.43;6.30;;;;;;;1.34;53.58;99671.70;1747455;80;21050;-51
2022/04/05 04:18:02;;;;;;;9.80;6.05;;;;;;;1.37;53.64;99672.02;1719210;81;21103;-51
2022/04/05 04:20:30;;;;;;;12.82;6.40;;;;;;;1.43;53.64;99666.48;1732692;81;21553;-52
2022/04/05 04:22:57;;;;;;;11.70;6.58;;;;;;;1.45;53.79;99678.46;1756489;81;21225;-52
2022/04/05 04:25:24;;;;;;;10.68;6.12;;;;;;;1.51;53.49;99663.02;1746950;80;21054;-53
2022/04/05 04:27:51;;;;;;;13.28;6.17;;;;;;;1.54;53.67;99667.22;1748364;81;21578;-52
2022/04/05 04:30:18;;;;;;;11.08;6.08;;;;;;;1.58;53.55;99663.09;1748063;80;21076;-52
2022/04/05 04:32:45;;;;;;;10.18;6.22;;;;;;;1.60;53.61;99667.73;1757011;81;21802;-52
2022/04/05 04:35:12;;;;;;;10.90;6.67;;;;;;;1.64;53.76;99665.80;1745180;80;21131;-52
2022/04/05 04:37:39;;;;;;;9.65;5.90;;;;;;;1.65;53.84;99659.23;1752945;80;21173;-52
2022/04/05 04:40:08;;;;;;;10.13;6.55;;;;;;;1.71;53.71;99657.22;1729311;81;21049;-52
2022/04/05 04:42:36;;;;;;;10.53;6.55;;;;;;;1.74;53.82;99651.41;1754370;80;21085;-52
2022/04/05 04:45:04;;;;;;;9.68;6.60;;;;;;;1.80;53.94;99651.52;1751684;80;21645;-51
2022/04/05 04:47:31;;;;;;;12.23;7.15;;;;;;;1.84;53.84;99654.33;1750237;81;21510;-51
2022/04/05 04:49:57;;;;;;;11.90;6.95;;;;;;;1.89;53.84;99652.31;1755094;80;21054;-52
2022/04/05 04:52:24;;;;;;;8.90;5.67;;;;;;;1.92;53.91;99649.55;1753583;80;21529;-51
2022/04/05 04:54:51;;;;;;;9.63;6.15;;;;;;;1.96;53.95;99647.62;1746151;80;21071;-52
2022/04/05 04:57:19;;;;;;;10.35;7.03;;;;;;;1.99;53.96;99643.09;1744011;80;21101;-53
2022/04/05 04:59:45;;;;;;;11.30;6.40;;;;;;;2.05;54.02;99636.70;1754011;80;21138;-52
2022/04/05 05:02:12;;;;;;;12.05;7.30;;;;;;;2.09;53.99;99642.11;1754664;80;21103;-52
2022/04/05 05:04:39;;;;;;;11.75;6.92;;;;;;;2.16;54.15;99638.70;1746464;81;21704;-53
2022/04/05 05:07:06;;;;;;;12.82;6.87;;;;;;;2.19;53.92;99641.13;1738574;82;21149;-52
2022/04/05 05:09:33;;;;;;;11.43;7.45;;;;;;;2.28;54.05;99635.40;1747451;80;21039;-52
2022/04/05 05:14:18;;;;;;;11.85;6.83;;;;;;;2.41;53.84;99627.27;1788207;78;22661;-52
2022/04/05 05:16:46;;;;;;;9.98;6.30;;;;;;;2.45;53.94;99629.70;1737227;80;21499;-52
2022/04/05 05:19:12;;;;;;;12.93;6.70;;;;;;;2.54;53.63;99635.64;1697455;83;21150;-52
2022/04/05 05:21:39;;;;;;;9.83;6.20;;;;;;;2.62;53.28;99623.03;1715669;81;21454;-52
2022/04/05 05:24:07;;;;;;;11.68;6.65;;;;;;;2.66;53.35;99625.02;1713070;83;21536;-51
2022/04/05 05:26:34;;;;;;;12.10;6.65;;;;;;;2.71;53.53;99622.50;1714141;82;21070;-52
2022/04/05 05:29:01;;;;;;;12.13;6.85;;;;;;;2.78;53.56;99626.40;1702404;82;21672;-53
2022/04/05 05:31:29;;;;;;;11.00;7.12;;;;;;;2.84;53.36;99627.81;1700511;82;21015;-52
2022/04/05 05:33:56;;;;;;;10.45;6.30;;;;;;;2.91;53.33;99624.38;1716180;82;21126;-52
2022/04/05 05:36:23;;;;;;;10.88;6.42;;;;;;;2.98;53.21;99615.28;1718079;82;21061;-51
2022/04/05 05:38:49;;;;;;;13.08;7.87;;;;;;;3.03;52.79;99621.03;1720075;82;21125;-52
2022/04/05 05:41:17;;;;;;;12.33;7.75;;;;;;;3.05;52.91;99618.34;1714900;82;21077;-52
2022/04/05 05:43:45;;;;;;;12.37;7.28;;;;;;;3.09;53.06;99604.21;1718129;82;21136;-53
2022/04/05 05:46:13;;;;;;;10.70;7.08;;;;;;;3.14;53.15;99612.12;1715244;83;21010;-52
2022/04/05 05:48:41;;;;;;;11.75;7.37;;;;;;;3.18;52.93;99599.77;1718690;82;21131;-53
2022/04/05 05:51:08;;;;;;;11.03;6.60;;;;;;;3.21;52.75;99601.31;1717194;82;21067;-51
2022/04/05 05:53:35;;;;;;;12.73;6.67;;;;;;;3.24;53.19;99602.44;1711326;82;21061;-53
2022/04/05 05:56:02;;;;;;;12.33;7.00;;;;;;;3.29;52.66;99593.88;1711164;82;21097;-52
2022/04/05 05:58:29;;;;;;;12.25;7.58;;;;;;;3.34;52.72;99604.36;1719126;83;21066;-52
2022/04/05 06:00:57;;;;;;;11.38;6.58;;;;;;;3.36;52.87;99601.66;1712451;82;21083;-51
2022/04/05 06:03:23;;;;;;;11.97;7.58;;;;;;;3.45;52.77;99596.37;1717431;83;21152;-51
2022/04/05 06:05:51;;;;;;;10.93;6.78;;;;;;;3.52;52.96;99592.44;1718546;82;21058;-51
2022/04/05 06:08:18;;;;;;;12.00;6.67;;;;;;;3.57;52.45;99584.35;1716729;82;21163;-52
2022/04/05 06:10:46;;;;;;;12.60;7.45;;;;;;;3.61;52.44;99581.44;1698515;83;21107;-53
2022/04/05 06:13:13;;;;;;;12.95;7.22;;;;;;;3.64;52.37;99581.72;1682049;83;21099;-53
2022/04/05 06:15:41;;;;;;;11.73;6.95;;;;;;;3.67;52.25;99575.02;1735889;81;21058;-52
2022/04/05 06:18:07;;;;;;;15.43;8.13;;;;;;;3.73;52.42;99565.50;1747883;81;21103;-52
2022/04/05 06:20:34;;;;;;;12.45;7.70;;;;;;;3.78;51.97;99572.54;1744328;81;21362;-51
2022/04/05 06:23:04;;;;;;;11.08;7.20;;;;;;;3.84;52.00;99579.14;1743073;80;21106;-51
2022/04/05 06:25:34;;;;;;;14.15;8.25;;;;;;;3.89;51.93;99564.05;1743649;81;21534;-52
2022/04/05 06:28:07;;;;;;;13.03;7.17;;;;;;;3.93;51.84;99571.19;1741433;81;21106;-51
2022/04/05 06:30:38;;;;;;;11.05;6.75;;;;;;;3.94;51.29;99562.45;1746050;80;21066;-52
2022/04/05 06:33:09;;;;;;;10.78;7.05;;;;;;;3.95;51.37;99568.87;1711842;82;21392;-52
2022/04/05 06:35:47;;;;;;;13.50;7.30;;;;;;;4.00;51.60;99559.43;1742460;81;21082;-51
2022/04/05 06:38:15;;;;;;;11.83;6.87;;;;;;;4.08;51.66;99555.86;1742707;82;21046;-53
2022/04/05 06:40:43;;;;;;;11.12;7.35;;;;;;;4.17;50.89;99549.20;1746177;81;21542;-52
2022/04/05 06:43:16;;;;;;;9.35;6.37;;;;;;;4.20;50.13;99551.16;1744292;80;21050;-51
2022/04/05 06:45:45;;;;;;;10.63;6.40;;;;;;;4.24;50.17;99555.21;1707528;82;21598;-53
2022/04/05 06:48:12;;;;;;;11.65;7.28;;;;;;;4.27;50.69;99558.91;1750630;82;21032;-52
2022/04/05 06:50:39;;;;;;;11.90;7.30;;;;;;;4.35;50.29;99551.87;1746448;81;21125;-51
2022/04/05 06:53:07;;;;;;;11.48;5.70;;;;;;;4.42;50.44;99557.50;1746700;82;21149;-52
2022/04/05 06:55:34;;;;;;;11.57;6.65;;;;;;;4.52;49.38;99540.30;1745356;81;21074;-53
2022/04/05 06:58:02;;;;;;;13.38;7.83;;;;;;;4.62;48.96;99538.77;1745169;80;21552;-52
2022/04/05 07:00:29;;;;;;;15.65;7.58;;;;;;;4.69;48.60;99533.95;1739671;81;21023;-55
2022/04/05 07:02:56;;;;;;;9.63;6.90;;;;;;;4.77;48.77;99530.80;1740489;82;21047;-52
2022/04/05 07:05:23;;;;;;;12.15;7.33;;;;;;;4.83;48.45;99530.39;1746204;81;21137;-52
2022/04/05 07:07:49;;;;;;;13.05;7.78;;;;;;;4.88;47.39;99526.16;1696753;83;21077;-53
2022/04/05 07:10:19;;;;;;;9.85;6.25;;;;;;;4.92;47.11;99528.91;1744294;82;21046;-51
2022/04/05 07:12:47;;;;;;;11.75;6.85;;;;;;;4.92;47.02;99525.81;1740692;81;21082;-51
2022/04/05 07:15:15;;;;;;;11.28;6.85;;;;;;;4.97;46.86;99531.54;1732241;81;21128;-52
2022/04/05 07:17:43;;;;;;;13.03;6.60;;;;;;;5.03;46.92;99522.47;1745711;80;22414;-51
2022/04/05 07:20:10;;;;;;;14.13;6.00;;;;;;;5.10;46.86;99522.88;1712978;82;21019;-52
2022/04/05 07:22:47;;;;;;;8.98;5.22;;;;;;;5.19;46.70;99519.14;1717238;82;21592;-52
2022/04/05 07:25:14;;;;;;;13.38;7.15;;;;;;;5.31;46.19;99517.88;1718070;82;21460;-52
2022/04/05 07:27:41;;;;;;;10.45;6.80;;;;;;;5.39;45.68;99513.77;1715696;82;21105;-52
2022/04/05 07:30:09;;;;;;;9.45;6.55;;;;;;;5.46;45.15;99517.25;1715919;83;21117;-50
2022/04/05 07:32:43;;;;;;;9.35;5.90;;;;;;;5.46;45.56;99517.25;1713384;82;21042;-52
2022/04/05 07:35:10;;;;;;;10.80;7.03;;;;;;;5.49;45.59;99504.80;1704938;83;21260;-55
2022/04/05 07:37:37;;;;;;;12.85;6.75;;;;;;;5.53;44.94;99506.27;1716581;83;21009;-53
2022/04/05 07:40:08;;;;;;;12.53;6.95;;;;;;;5.56;44.90;99508.66;1718362;82;21057;-51
2022/04/05 07:42:38;;;;;;;10.35;6.55;;;;;;;5.58;45.14;99506.76;1719040;82;21085;-51
2022/04/05 07:45:08;;;;;;;8.55;5.67;;;;;;;5.65;44.99;99500.62;1718695;83;21069;-52
2022/04/05 07:47:35;;;;;;;9.65;5.62;;;;;;;5.71;44.42;99489.70;1704212;82;21710;-52
2022/04/05 07:50:03;;;;;;;8.28;5.42;;;;;;;5.77;44.57;99494.48;1712534;83;21443;-52
2022/04/05 07:52:30;;;;;;;9.05;5.85;;;;;;;5.85;44.63;99481.32;1713843;82;21113;-52
2022/04/05 07:54:56;;;;;;;8.38;5.72;;;;;;;5.93;44.13;99490.72;1719723;83;22158;-51
2022/04/05 07:57:25;;;;;;;9.45;5.95;;;;;;;5.98;43.58;99483.88;1710153;82;21533;-52
2022/04/05 07:59:52;;;;;;;9.58;5.58;;;;;;;6.01;42.86;99483.17;1721973;82;21225;-51
2022/04/05 08:02:19;;;;;;;9.38;6.22;;;;;;;6.01;43.28;99472.73;1702677;82;21531;-54
2022/04/05 08:04:45;;;;;;;8.73;5.45;;;;;;;6.04;43.45;99475.11;1710691;82;21165;-53
2022/04/05 08:07:12;;;;;;;11.30;6.67;;;;;;;6.06;42.82;99466.68;1706802;82;21030;-52
2022/04/05 08:09:38;;;;;;;10.98;6.22;;;;;;;6.04;42.71;99468.58;1681190;84;21056;-51
2022/04/05 08:12:06;;;;;;;11.40;5.95;;;;;;;6.02;42.80;99457.43;1681651;84;21163;-52
2022/04/05 08:14:33;;;;;;;10.63;6.10;;;;;;;6.00;42.83;99448.89;1686918;82;21005;-53
2022/04/05 08:17:01;;;;;;;11.63;6.50;;;;;;;5.98;43.01;99454.67;1743503;80;20995;-53
2022/04/05 08:19:28;;;;;;;9.15;5.65;;;;;;;6.00;42.86;99450.64;1745624;80;21085;-53
2022/04/05 08:21:56;;;;;;;11.08;5.87;;;;;;;6.02;42.69;99451.35;1734131;81;21082;-51
2022/04/05 08:24:23;;;;;;;9.98;5.90;;;;;;;6.03;42.90;99466.91;1719178;82;22025;-52
2022/04/05 08:26:49;;;;;;;9.58;6.08;;;;;;;6.05;42.46;99465.03;1727525;81;21012;-51
2022/04/05 08:29:16;;;;;;;10.30;6.08;;;;;;;6.06;42.26;99464.07;1741312;80;21047;-54
2022/04/05 08:31:43;;;;;;;9.38;6.05;;;;;;;6.05;42.52;99463.73;1733869;81;21596;-54
2022/04/05 08:34:10;;;;;;;9.05;6.05;;;;;;;6.08;42.79;99481.75;1747654;80;21031;-51
2022/04/05 08:36:39;;;;;;;10.75;6.00;;;;;;;6.09;42.65;99468.25;1746367;80;21206;-52
2022/04/05 08:39:06;;;;;;;11.05;6.10;;;;;;;6.10;43.07;99473.35;1735032;81;21570;-52
2022/04/05 08:41:35;;;;;;;11.93;6.65;;;;;;;6.14;43.25;99473.95;1733323;81;21047;-52
2022/04/05 08:44:02;;;;;;;10.03;5.60;;;;;;;6.19;42.67;99474.42;1731753;81;21080;-52
2022/04/05 08:46:32;;;;;;;8.60;5.65;;;;;;;6.25;42.80;99471.81;1700519;83;21106;-52
2022/04/05 08:49:00;;;;;;;11.00;5.92;;;;;;;6.33;42.48;99469.44;1709080;82;21137;-52
2022/04/05 08:51:29;;;;;;;9.88;5.75;;;;;;;6.41;41.89;99471.48;1745198;81;21050;-51
2022/04/05 08:53:57;;;;;;;9.98;5.90;;;;;;;6.46;42.43;99470.16;1682703;82;21024;-52
2022/04/05 08:56:30;;;;;;;9.38;5.75;;;;;;;6.50;42.67;99472.88;1739974;81;21549;-51
2022/04/05 08:58:57;;;;;;;10.10;5.47;;;;;;;6.49;43.07;99469.11;1739778;82;21443;-52
2022/04/05 09:01:23;;;;;;;10.38;6.87;;;;;;;6.46;43.76;99449.25;1735307;81;21191;-51
2022/04/05 09:03:50;;;;;;;9.93;6.35;;;;;;;6.43;45.04;99499.63;1745922;80;21043;-52
2022/04/05 09:06:33;;;;;;;10.50;6.65;;;;;;;6.32;45.31;99472.99;1742695;81;22261;-52
2022/04/05 09:09:17;;;;;;;8.38;5.28;;;;;;;6.23;46.29;99475.84;1742306;82;21346;-52
2022/04/05 09:11:55;;;;;;;14.05;6.87;;;;;;;6.09;46.54;99467.77;1741380;81;21082;-52
2022/04/05 09:14:27;;;;;;;10.72;6.20;;;;;;;6.03;47.86;99500.86;1741011;82;21218;-51
2022/04/05 09:17:07;;;;;;;10.75;6.12;;;;;;;5.97;48.03;99469.16;1702411;82;21070;-51
2022/04/05 09:19:42;;;;;;;8.10;5.62;;;;;;;5.86;49.05;99473.38;1741763;81;21066;-52
2022/04/05 09:22:09;;;;;;;;;;;;;;;5.80;49.60;99469.94;1742232;80;21047;-52
2022/04/05 09:24:39;;;;;;;9.98;6.67;;;;;;;5.75;50.38;99471.58;1736487;81;20143;-52
2022/04/05 09:27:06;;;;;;;11.45;6.85;;;;;;;5.67;50.64;99478.32;1731282;80;21069;-51
2022/04/05 09:29:47;;;;;;;9.98;6.10;;;;;;;5.58;51.71;99460.23;1737985;82;21114;-51
2022/04/05 09:32:37;;;;;;;9.78;6.17;;;;;;;5.55;52.52;99467.83;1733291;81;21103;-53
2022/04/05 09:35:10;;;;;;;8.85;5.72;;;;;;;5.54;53.11;99473.98;1702674;82;21085;-51
2022/04/05 09:37:38;;;;;;;11.80;6.97;;;;;;;5.49;53.71;99463.54;1709268;82;21094;-52
2022/04/05 09:40:34;;;;;;;11.00;6.28;;;;;;;5.50;54.04;99449.08;1708663;83;21987;-52
2022/04/05 09:43:17;;;;;;;9.73;6.12;;;;;;;5.61;53.88;99446.96;1737916;82;21083;-51
2022/04/05 09:45:59;;;;;;;10.38;5.90;;;;;;;5.73;53.21;99442.16;1705313;82;21027;-53
2022/04/05 09:48:30;;;;;;;9.65;5.58;;;;;;;5.81;52.65;99445.47;1711583;83;21546;-51
2022/04/05 09:51:10;;;;;;;9.05;6.28;;;;;;;5.89;52.03;99430.06;1705815;82;21050;-51
2022/04/05 09:53:47;;;;;;;10.48;6.30;;;;;;;5.99;51.39;99434.16;1707462;83;21079;-53
2022/04/05 09:56:30;;;;;;;10.30;6.10;;;;;;;6.09;51.29;99422.54;1699770;83;21119;-52
2022/04/05 09:59:06;;;;;;;10.25;6.08;;;;;;;6.25;50.84;99424.78;1699568;82;21165;-51
2022/04/05 10:01:35;;;;;;;10.43;6.40;;;;;;;6.37;50.97;99429.08;1698872;83;21117;-52
2022/04/05 10:04:05;;;;;;;9.30;5.80;;;;;;;6.49;51.20;99427.30;1702343;83;21377;-52
2022/04/05 10:06:33;;;;;;;9.18;5.92;;;;;;;6.61;51.19;99428.93;1700624;82;21264;-50
2022/04/05 10:09:00;;;;;;;8.70;5.53;;;;;;;6.71;50.74;99427.73;1737840;81;21047;-51
2022/04/05 10:11:29;;;;;;;10.72;5.50;;;;;;;6.77;50.54;99424.61;1738033;81;21099;-52
2022/04/05 10:13:56;;;;;;;10.50;6.17;;;;;;;6.82;50.21;99422.45;1737617;81;21171;-53
2022/04/05 10:16:25;;;;;;;10.63;6.17;;;;;;;6.80;49.28;99426.17;1738545;81;21048;-51
2022/04/05 10:18:58;;;;;;;10.10;5.87;;;;;;;6.70;49.82;99421.66;1737899;80;21795;-51
2022/04/05 10:21:29;;;;;;;10.63;6.28;;;;;;;6.63;49.79;99420.48;1735543;80;21650;-52
2022/04/05 10:23:56;;;;;;;9.75;5.42;;;;;;;6.56;49.66;99425.03;1737565;82;21119;-52
2022/04/05 10:26:30;;;;;;;8.45;5.25;;;;;;;6.53;49.87;99414.81;1713231;82;21073;-51
2022/04/05 10:28:58;;;;;;;11.68;6.47;;;;;;;6.58;50.17;99403.52;1737669;80;21074;-52
2022/04/05 10:31:40;;;;;;;9.28;5.45;;;;;;;6.67;49.90;99402.31;1706396;82;21139;-51
2022/04/05 10:34:24;;;;;;;8.85;5.95;;;;;;;6.78;49.03;99397.52;1739500;82;21055;-52
2022/04/05 10:37:16;;;;;;;9.13;5.78;;;;;;;6.86;48.65;99397.74;1738144;81;21054;-51
2022/04/05 10:39:41;;;;;;;10.60;6.83;;;;;;;6.93;47.68;99412.47;1709515;82;21397;-51
2022/04/05 10:42:12;;;;;;;9.95;5.55;;;;;;;6.93;48.06;99398.56;1693958;83;21035;-52
2022/04/05 10:44:41;;;;;;;8.65;5.22;;;;;;;6.99;48.00;99389.75;1701083;84;21301;-52
2022/04/05 10:47:07;;;;;;;9.28;5.42;;;;;;;7.06;47.39;99390.91;1740396;81;21127;-52
2022/04/05 10:49:42;;;;;;;8.40;5.37;;;;;;;7.05;47.55;99391.84;1704104;82;21491;-51
2022/04/05 10:52:18;;;;;;;9.70;5.58;;;;;;;7.05;47.37;99399.70;1702922;82;20991;-51
2022/04/05 10:54:49;;;;;;;8.35;5.60;;;;;;;7.08;47.30;99388.16;1733285;80;21010;-51
2022/04/05 10:57:26;;;;;;;9.05;5.53;;;;;;;7.12;47.29;99379.09;1738972;80;21127;-52
2022/04/05 10:59:59;;;;;;;9.13;5.15;;;;;;;7.16;46.40;99382.30;1739604;81;21055;-52
2022/04/05 11:02:38;;;;;;;8.60;5.42;;;;;;;7.17;46.31;99396.56;1733534;80;21066;-53
2022/04/05 11:05:19;;;;;;;8.75;5.37;;;;;;;7.17;46.01;99376.94;1737321;81;21061;-52
2022/04/05 11:08:00;;;;;;;9.28;5.72;;;;;;;7.15;46.31;99368.87;1699522;82;21141;-51
2022/04/05 11:10:41;;;;;;;8.33;5.17;;;;;;;7.13;46.32;99385.16;1741743;80;21135;-53
2022/04/05 11:13:14;;;;;;;8.10;5.00;;;;;;;7.07;46.59;99365.56;1703448;83;21098;-51
2022/04/05 11:15:49;;;;;;;10.03;5.72;;;;;;;7.06;46.85;99367.36;1713263;82;21129;-50
2022/04/05 11:18:22;;;;;;;9.55;5.40;;;;;;;7.07;47.01;99369.00;1719500;83;21113;-51
2022/04/05 11:20:51;;;;;;;8.33;5.20;;;;;;;7.07;47.11;99357.23;1713528;82;21621;-55
2022/04/05 11:23:20;;;;;;;9.28;5.80;;;;;;;7.08;47.08;99367.23;1719758;82;21097;-50
2022/04/05 11:25:48;;;;;;;10.35;5.37;;;;;;;7.08;47.11;99355.47;1706374;83;21066;-49
2022/04/05 11:28:21;;;;;;;9.53;6.00;;;;;;;7.08;47.09;99354.16;1709209;82;21513;-52
2022/04/05 11:30:56;;;;;;;8.55;5.20;;;;;;;7.11;46.58;99361.77;1715722;82;21631;-52
2022/04/05 11:33:36;;;;;;;10.28;5.70;;;;;;;7.10;46.64;99335.73;1664783;84;21095;-51
2022/04/05 11:36:10;;;;;;;9.93;4.92;;;;;;;7.08;46.62;99351.55;1717831;82;21552;-52
2022/04/05 11:38:44;;;;;;;10.20;5.55;;;;;;;7.09;46.88;99344.52;1714558;82;21133;-51
2022/04/05 11:41:21;;;;;;;10.80;5.55;;;;;;;7.11;46.82;99343.45;1705976;82;21093;-51
2022/04/05 11:43:56;;;;;;;9.58;4.55;;;;;;;7.15;47.01;99344.02;1716198;83;21066;-52
2022/04/05 11:46:30;;;;;;;7.28;4.62;;;;;;;7.22;46.89;99334.70;1712802;82;20987;-51
2022/04/05 11:49:10;;;;;;;10.32;5.75;;;;;;;7.28;46.95;99330.73;1720165;82;21856;-51